GWILD EGBO-EGBO
Flight info
| Callsign | GWILD |
|---|---|
| Flight time | 0h 45m |
| Altitude | 3000 |
| Route | EGBB |
| Aircraft | BE36/L-VGD/A |
Departure
| Time | 2026-04-25 19:02 |
|---|---|
| Airport | Wolverhampton Halfpenny Green Airport (EGBO) |
Arrival
| Time | 2026-04-25 19:47 |
|---|---|
| Airport | Wolverhampton Halfpenny Green Airport (EGBO) |
| Time | Latitude | Longitude | Altitude | Speed | Heading |
|---|---|---|---|---|---|
| 2026-04-25 18:50 | 52.51490 | -2.26374 | 245 ft | 0 kts | 207° |
| 2026-04-25 18:52 | 52.51488 | -2.26375 | 266 ft | 1 kts | 202° |
| 2026-04-25 18:52 | 52.51475 | -2.26367 | 269 ft | 2 kts | 112° |
| 2026-04-25 18:52 | 52.51490 | -2.26349 | 269 ft | 3 kts | 348° |
| 2026-04-25 18:53 | 52.51515 | -2.26360 | 270 ft | 6 kts | 349° |
| 2026-04-25 18:53 | 52.51529 | -2.26442 | 267 ft | 9 kts | 277° |
| 2026-04-25 18:53 | 52.51535 | -2.26546 | 267 ft | 10 kts | 275° |
| 2026-04-25 18:53 | 52.51543 | -2.26660 | 264 ft | 11 kts | 276° |
| 2026-04-25 18:54 | 52.51586 | -2.26729 | 263 ft | 1 kts | 39° |
| 2026-04-25 18:54 | 52.51659 | -2.26630 | 274 ft | 20 kts | 41° |
| 2026-04-25 18:54 | 52.51704 | -2.26476 | 276 ft | 15 kts | 96° |
| 2026-04-25 18:55 | 52.51691 | -2.26319 | 275 ft | 13 kts | 99° |
| 2026-04-25 18:55 | 52.51680 | -2.26191 | 276 ft | 10 kts | 96° |
| 2026-04-25 18:55 | 52.51674 | -2.26091 | 276 ft | 9 kts | 94° |
| 2026-04-25 18:55 | 52.51667 | -2.25987 | 275 ft | 9 kts | 97° |
| 2026-04-25 18:56 | 52.51683 | -2.25919 | 274 ft | 8 kts | 353° |
| 2026-04-25 18:56 | 52.51760 | -2.25970 | 273 ft | 15 kts | 337° |
| 2026-04-25 18:56 | 52.51850 | -2.26035 | 272 ft | 13 kts | 336° |
| 2026-04-25 18:56 | 52.51917 | -2.26087 | 274 ft | 8 kts | 333° |
| 2026-04-25 18:57 | 52.51956 | -2.26127 | 275 ft | 5 kts | 307° |
| 2026-04-25 18:57 | 52.51978 | -2.26153 | 275 ft | 3 kts | 8° |
| 2026-04-25 18:57 | 52.51987 | -2.26125 | 275 ft | 2 kts | 122° |
| 2026-04-25 18:57 | 52.51986 | -2.26123 | 275 ft | 0 kts | 146° |
| 2026-04-25 18:58 | 52.51971 | -2.26124 | 275 ft | 1 kts | 158° |
| 2026-04-25 18:58 | 52.51969 | -2.26122 | 275 ft | 0 kts | 152° |
| 2026-04-25 19:01 | 52.51934 | -2.26096 | 275 ft | 28 kts | 155° |
| 2026-04-25 19:01 | 52.51527 | -2.25797 | 308 ft | 90 kts | 156° |
| 2026-04-25 19:01 | 52.50934 | -2.25369 | 624 ft | 96 kts | 155° |
| 2026-04-25 19:01 | 52.50257 | -2.24882 | 850 ft | 113 kts | 156° |
| 2026-04-25 19:02 | 52.48778 | -2.23744 | 1492 ft | 120 kts | 155° |
| 2026-04-25 19:02 | 52.48018 | -2.23164 | 1831 ft | 121 kts | 154° |
| 2026-04-25 19:02 | 52.47496 | -2.22176 | 2159 ft | 119 kts | 101° |
| 2026-04-25 19:03 | 52.47424 | -2.19925 | 2705 ft | 119 kts | 93° |
| 2026-04-25 19:03 | 52.47357 | -2.18097 | 2990 ft | 131 kts | 93° |
| 2026-04-25 19:03 | 52.47291 | -2.16511 | 2998 ft | 146 kts | 94° |
| 2026-04-25 19:04 | 52.47137 | -2.13063 | 2990 ft | 133 kts | 94° |
| 2026-04-25 19:04 | 52.47077 | -2.11706 | 2971 ft | 106 kts | 94° |
| 2026-04-25 19:05 | 52.46981 | -2.09590 | 2976 ft | 88 kts | 104° |
| 2026-04-25 19:05 | 52.46339 | -2.09912 | 2979 ft | 81 kts | 303° |
| 2026-04-25 19:05 | 52.46751 | -2.10579 | 3001 ft | 88 kts | 341° |
| 2026-04-25 19:06 | 52.47287 | -2.10210 | 3004 ft | 96 kts | 66° |
| 2026-04-25 19:06 | 52.46606 | -2.08286 | 3012 ft | 113 kts | 161° |
| 2026-04-25 19:06 | 52.45872 | -2.08608 | 3009 ft | 118 kts | 229° |
| 2026-04-25 19:07 | 52.46401 | -2.10629 | 3002 ft | 121 kts | 359° |
| 2026-04-25 19:07 | 52.47096 | -2.09996 | 3000 ft | 121 kts | 62° |
| 2026-04-25 19:08 | 52.46288 | -2.08160 | 3003 ft | 124 kts | 189° |
| 2026-04-25 19:08 | 52.45670 | -2.08999 | 2995 ft | 125 kts | 251° |
| 2026-04-25 19:09 | 52.47171 | -2.09806 | 2999 ft | 122 kts | 77° |
| 2026-04-25 19:09 | 52.47100 | -2.08891 | 3002 ft | 122 kts | 119° |
| 2026-04-25 19:09 | 52.45584 | -2.08111 | 2988 ft | 115 kts | 234° |
| 2026-04-25 19:10 | 52.45546 | -2.09330 | 2992 ft | 112 kts | 303° |
| 2026-04-25 19:10 | 52.46208 | -2.09803 | 2997 ft | 109 kts | 14° |
| 2026-04-25 19:10 | 52.46678 | -2.08956 | 3000 ft | 107 kts | 85° |
| 2026-04-25 19:10 | 52.46326 | -2.07974 | 2998 ft | 107 kts | 158° |
| 2026-04-25 19:11 | 52.45648 | -2.08238 | 3006 ft | 107 kts | 231° |
| 2026-04-25 19:11 | 52.45598 | -2.09367 | 3005 ft | 106 kts | 304° |
| 2026-04-25 19:11 | 52.46234 | -2.09765 | 3001 ft | 104 kts | 18° |
| 2026-04-25 19:11 | 52.46631 | -2.08878 | 3004 ft | 103 kts | 93° |
| 2026-04-25 19:12 | 52.46209 | -2.08019 | 2998 ft | 105 kts | 167° |
| 2026-04-25 19:12 | 52.45583 | -2.08459 | 3000 ft | 105 kts | 242° |
| 2026-04-25 19:12 | 52.45667 | -2.09563 | 3004 ft | 104 kts | 316° |
| 2026-04-25 19:12 | 52.46329 | -2.09721 | 2998 ft | 103 kts | 32° |
| 2026-04-25 19:13 | 52.46583 | -2.08721 | 3003 ft | 103 kts | 106° |
| 2026-04-25 19:13 | 52.46048 | -2.08064 | 3006 ft | 104 kts | 181° |
| 2026-04-25 19:13 | 52.45516 | -2.08752 | 3003 ft | 105 kts | 257° |
| 2026-04-25 19:13 | 52.45776 | -2.09768 | 2996 ft | 103 kts | 332° |
| 2026-04-25 19:14 | 52.46433 | -2.09617 | 3000 ft | 102 kts | 47° |
| 2026-04-25 19:14 | 52.46554 | -2.09298 | 2995 ft | 102 kts | 72° |
| 2026-04-25 19:14 | 52.45868 | -2.08151 | 3001 ft | 107 kts | 196° |
| 2026-04-25 19:14 | 52.45426 | -2.09055 | 3000 ft | 109 kts | 268° |
| 2026-04-25 19:15 | 52.45805 | -2.10054 | 3004 ft | 110 kts | 339° |
| 2026-04-25 19:15 | 52.46508 | -2.09805 | 3006 ft | 110 kts | 49° |
| 2026-04-25 19:15 | 52.46605 | -2.08633 | 2996 ft | 111 kts | 118° |
| 2026-04-25 19:15 | 52.45956 | -2.08063 | 3005 ft | 113 kts | 186° |
| 2026-04-25 19:16 | 52.45383 | -2.08852 | 2999 ft | 115 kts | 255° |
| 2026-04-25 19:16 | 52.45610 | -2.10026 | 3006 ft | 114 kts | 323° |
| 2026-04-25 19:16 | 52.46352 | -2.10122 | 2994 ft | 113 kts | 31° |
| 2026-04-25 19:16 | 52.46677 | -2.09038 | 2999 ft | 113 kts | 99° |
| 2026-04-25 19:17 | 52.46175 | -2.08135 | 3006 ft | 114 kts | 167° |
| 2026-04-25 19:17 | 52.45469 | -2.08552 | 3003 ft | 116 kts | 234° |
| 2026-04-25 19:17 | 52.45423 | -2.09794 | 2999 ft | 115 kts | 301° |
| 2026-04-25 19:17 | 52.46095 | -2.10347 | 3003 ft | 114 kts | 9° |
| 2026-04-25 19:18 | 52.46653 | -2.09547 | 3000 ft | 113 kts | 76° |
| 2026-04-25 19:18 | 52.46412 | -2.08403 | 3004 ft | 114 kts | 143° |
| 2026-04-25 19:18 | 52.45651 | -2.08341 | 3004 ft | 115 kts | 212° |
| 2026-04-25 19:18 | 52.45323 | -2.09463 | 3004 ft | 116 kts | 279° |
| 2026-04-25 19:19 | 52.45821 | -2.10398 | 2997 ft | 115 kts | 347° |
| 2026-04-25 19:19 | 52.46523 | -2.10017 | 3003 ft | 113 kts | 53° |
| 2026-04-25 19:19 | 52.46574 | -2.08803 | 3001 ft | 114 kts | 121° |
| 2026-04-25 19:19 | 52.46158 | -2.08291 | 3006 ft | 114 kts | 167° |
| 2026-04-25 19:20 | 52.45299 | -2.09040 | 3002 ft | 116 kts | 251° |
| 2026-04-25 19:20 | 52.45479 | -2.10252 | 3006 ft | 115 kts | 319° |
| 2026-04-25 19:20 | 52.46220 | -2.10452 | 2999 ft | 114 kts | 26° |
| 2026-04-25 19:20 | 52.46607 | -2.09412 | 3006 ft | 113 kts | 94° |
| 2026-04-25 19:21 | 52.46159 | -2.08448 | 2997 ft | 113 kts | 162° |
| 2026-04-25 19:21 | 52.45330 | -2.09935 | 3000 ft | 114 kts | 295° |
| 2026-04-25 19:21 | 52.45952 | -2.10605 | 3010 ft | 112 kts | 357° |
| 2026-04-25 19:22 | 52.46733 | -2.10274 | 2832 ft | 127 kts | 39° |
| 2026-04-25 19:22 | 52.47137 | -2.08968 | 2611 ft | 137 kts | 88° |
| 2026-04-25 19:22 | 52.46993 | -2.06044 | 2502 ft | 129 kts | 95° |
| 2026-04-25 19:23 | 52.46943 | -2.05081 | 2498 ft | 127 kts | 95° |
| 2026-04-25 19:24 | 52.46704 | -2.00378 | 2294 ft | 128 kts | 95° |
| 2026-04-25 19:24 | 52.46696 | -2.00222 | 2293 ft | 128 kts | 95° |
| 2026-04-25 19:24 | 52.46562 | -1.97555 | 2290 ft | 127 kts | 95° |
| 2026-04-25 19:25 | 52.46417 | -1.94679 | 2289 ft | 127 kts | 95° |
| 2026-04-25 19:25 | 52.46344 | -1.93246 | 2288 ft | 127 kts | 95° |
| 2026-04-25 19:25 | 52.46271 | -1.91804 | 2288 ft | 127 kts | 95° |
| 2026-04-25 19:26 | 52.46197 | -1.90355 | 2291 ft | 127 kts | 95° |
| 2026-04-25 19:26 | 52.46123 | -1.88909 | 2289 ft | 127 kts | 94° |
| 2026-04-25 19:26 | 52.46356 | -1.87629 | 2285 ft | 127 kts | 51° |
| 2026-04-25 19:26 | 52.47132 | -1.87098 | 2282 ft | 128 kts | 353° |
| 2026-04-25 19:27 | 52.47930 | -1.87737 | 2286 ft | 128 kts | 330° |
| 2026-04-25 19:27 | 52.48443 | -1.88225 | 2291 ft | 129 kts | 330° |
| 2026-04-25 19:27 | 52.49539 | -1.88859 | 2288 ft | 127 kts | 14° |
| 2026-04-25 19:27 | 52.50193 | -1.88029 | 2295 ft | 124 kts | 51° |
| 2026-04-25 19:28 | 52.50758 | -1.86952 | 2295 ft | 125 kts | 50° |
| 2026-04-25 19:28 | 52.51303 | -1.85924 | 2298 ft | 125 kts | 50° |
| 2026-04-25 19:28 | 52.51874 | -1.84839 | 2299 ft | 126 kts | 50° |
| 2026-04-25 19:28 | 52.52323 | -1.83654 | 2285 ft | 123 kts | 81° |
| 2026-04-25 19:29 | 52.52090 | -1.82318 | 2141 ft | 129 kts | 132° |
| 2026-04-25 19:29 | 52.51375 | -1.81369 | 1982 ft | 134 kts | 143° |
| 2026-04-25 19:29 | 52.50544 | -1.80468 | 1592 ft | 146 kts | 148° |
| 2026-04-25 19:29 | 52.49764 | -1.79685 | 1215 ft | 123 kts | 148° |
| 2026-04-25 19:30 | 52.49130 | -1.78991 | 897 ft | 93 kts | 144° |
| 2026-04-25 19:30 | 52.48625 | -1.78388 | 704 ft | 93 kts | 145° |
| 2026-04-25 19:30 | 52.48091 | -1.77800 | 627 ft | 92 kts | 146° |
| 2026-04-25 19:30 | 52.47564 | -1.77214 | 541 ft | 90 kts | 146° |
| 2026-04-25 19:31 | 52.47053 | -1.76646 | 457 ft | 83 kts | 146° |
| 2026-04-25 19:31 | 52.46625 | -1.76165 | 388 ft | 86 kts | 148° |
| 2026-04-25 19:31 | 52.46145 | -1.75635 | 312 ft | 86 kts | 147° |
| 2026-04-25 19:31 | 52.45798 | -1.75252 | 317 ft | 65 kts | 141° |
| 2026-04-25 19:32 | 52.45333 | -1.74730 | 415 ft | 95 kts | 146° |
| 2026-04-25 19:32 | 52.44741 | -1.74089 | 669 ft | 105 kts | 149° |
| 2026-04-25 19:32 | 52.44121 | -1.73425 | 980 ft | 110 kts | 146° |
| 2026-04-25 19:32 | 52.43681 | -1.72943 | 1195 ft | 114 kts | 146° |
| 2026-04-25 19:33 | 52.42677 | -1.72389 | 1610 ft | 118 kts | 166° |
| 2026-04-25 19:33 | 52.41869 | -1.72074 | 1919 ft | 120 kts | 166° |
| 2026-04-25 19:33 | 52.41052 | -1.71771 | 2224 ft | 121 kts | 171° |
| 2026-04-25 19:33 | 52.40242 | -1.72246 | 2289 ft | 135 kts | 227° |
| 2026-04-25 19:34 | 52.39764 | -1.73564 | 2290 ft | 146 kts | 240° |
| 2026-04-25 19:34 | 52.39251 | -1.75054 | 2302 ft | 154 kts | 240° |
| 2026-04-25 19:34 | 52.38719 | -1.76607 | 2302 ft | 159 kts | 240° |
| 2026-04-25 19:34 | 52.38174 | -1.78205 | 2299 ft | 161 kts | 240° |
| 2026-04-25 19:35 | 52.37624 | -1.79817 | 2297 ft | 163 kts | 240° |
| 2026-04-25 19:35 | 52.37072 | -1.81434 | 2301 ft | 163 kts | 240° |
| 2026-04-25 19:35 | 52.36518 | -1.83057 | 2298 ft | 164 kts | 240° |
| 2026-04-25 19:35 | 52.35959 | -1.84685 | 2300 ft | 164 kts | 240° |
| 2026-04-25 19:36 | 52.35400 | -1.86313 | 2299 ft | 164 kts | 240° |
| 2026-04-25 19:36 | 52.35043 | -1.87989 | 2296 ft | 164 kts | 270° |
| 2026-04-25 19:36 | 52.35487 | -1.89656 | 2296 ft | 164 kts | 314° |
| 2026-04-25 19:36 | 52.36277 | -1.90990 | 2299 ft | 163 kts | 310° |
| 2026-04-25 19:37 | 52.36976 | -1.92437 | 2298 ft | 164 kts | 307° |
| 2026-04-25 19:37 | 52.37654 | -1.93938 | 2302 ft | 164 kts | 306° |
| 2026-04-25 19:37 | 52.38328 | -1.95450 | 2303 ft | 164 kts | 306° |
| 2026-04-25 19:37 | 52.38998 | -1.96962 | 2301 ft | 164 kts | 306° |
| 2026-04-25 19:38 | 52.39670 | -1.98481 | 2301 ft | 164 kts | 306° |
| 2026-04-25 19:38 | 52.40349 | -2.00014 | 2303 ft | 164 kts | 306° |
| 2026-04-25 19:38 | 52.41104 | -2.01361 | 2298 ft | 164 kts | 330° |
| 2026-04-25 19:38 | 52.42200 | -2.01548 | 2293 ft | 163 kts | 19° |
| 2026-04-25 19:39 | 52.43017 | -2.00363 | 2297 ft | 161 kts | 66° |
| 2026-04-25 19:39 | 52.43036 | -1.98581 | 2297 ft | 161 kts | 113° |
| 2026-04-25 19:39 | 52.42244 | -1.97360 | 2301 ft | 161 kts | 160° |
| 2026-04-25 19:39 | 52.41153 | -1.97491 | 2302 ft | 162 kts | 207° |
| 2026-04-25 19:40 | 52.40465 | -1.98893 | 2302 ft | 163 kts | 255° |
| 2026-04-25 19:40 | 52.40570 | -2.00704 | 2302 ft | 163 kts | 297° |
| 2026-04-25 19:40 | 52.41217 | -2.02231 | 2303 ft | 163 kts | 306° |
| 2026-04-25 19:40 | 52.41889 | -2.03731 | 2302 ft | 164 kts | 306° |
| 2026-04-25 19:41 | 52.42563 | -2.05233 | 2300 ft | 164 kts | 306° |
| 2026-04-25 19:41 | 52.43238 | -2.06741 | 2302 ft | 164 kts | 306° |
| 2026-04-25 19:41 | 52.43912 | -2.08252 | 2305 ft | 164 kts | 306° |
| 2026-04-25 19:41 | 52.44130 | -2.08742 | 2304 ft | 164 kts | 306° |
| 2026-04-25 19:42 | 52.45258 | -2.11274 | 2300 ft | 164 kts | 306° |
| 2026-04-25 19:42 | 52.45931 | -2.12786 | 2307 ft | 164 kts | 306° |
| 2026-04-25 19:42 | 52.46602 | -2.14298 | 2307 ft | 164 kts | 306° |
| 2026-04-25 19:42 | 52.47266 | -2.15791 | 2307 ft | 164 kts | 306° |
| 2026-04-25 19:43 | 52.47937 | -2.17301 | 2305 ft | 164 kts | 307° |
| 2026-04-25 19:43 | 52.48589 | -2.18766 | 2233 ft | 147 kts | 307° |
| 2026-04-25 19:43 | 52.49161 | -2.20053 | 1962 ft | 133 kts | 307° |
| 2026-04-25 19:43 | 52.49670 | -2.21201 | 1696 ft | 125 kts | 307° |
| 2026-04-25 19:44 | 52.50346 | -2.21949 | 1424 ft | 117 kts | 346° |
| 2026-04-25 19:44 | 52.51115 | -2.22319 | 1152 ft | 113 kts | 344° |
| 2026-04-25 19:44 | 52.51708 | -2.22618 | 998 ft | 107 kts | 343° |
| 2026-04-25 19:44 | 52.52428 | -2.22983 | 990 ft | 104 kts | 343° |
| 2026-04-25 19:45 | 52.53116 | -2.23329 | 989 ft | 102 kts | 344° |
| 2026-04-25 19:45 | 52.53788 | -2.23668 | 989 ft | 100 kts | 343° |
| 2026-04-25 19:45 | 52.54350 | -2.24237 | 987 ft | 93 kts | 291° |
| 2026-04-25 19:45 | 52.54247 | -2.25158 | 931 ft | 84 kts | 251° |
| 2026-04-25 19:46 | 52.54084 | -2.26094 | 1010 ft | 89 kts | 250° |
| 2026-04-25 19:46 | 52.53705 | -2.26713 | 879 ft | 82 kts | 201° |
| 2026-04-25 19:46 | 52.53123 | -2.26895 | 661 ft | 85 kts | 175° |
| 2026-04-25 19:46 | 52.52604 | -2.26587 | 434 ft | 81 kts | 149° |
| 2026-04-25 19:47 | 52.52079 | -2.26202 | 296 ft | 80 kts | 154° |
| 2026-04-25 19:47 | 52.51724 | -2.25938 | 274 ft | 17 kts | 155° |
| 2026-04-25 19:47 | 52.51661 | -2.25908 | 274 ft | 1 kts | 232° |
| 2026-04-25 19:47 | 52.51664 | -2.25959 | 274 ft | 12 kts | 276° |
| 2026-04-25 19:48 | 52.51670 | -2.26089 | 276 ft | 10 kts | 277° |
| 2026-04-25 19:48 | 52.51679 | -2.26190 | 276 ft | 9 kts | 281° |
| 2026-04-25 19:48 | 52.51688 | -2.26284 | 275 ft | 8 kts | 277° |
| 2026-04-25 19:48 | 52.51689 | -2.26361 | 275 ft | 6 kts | 252° |
| 2026-04-25 19:49 | 52.51683 | -2.26414 | 275 ft | 4 kts | 220° |
| 2026-04-25 19:49 | 52.51675 | -2.26422 | 276 ft | 3 kts | 196° |
| 2026-04-25 19:49 | 52.51633 | -2.26428 | 273 ft | 14 kts | 184° |
| 2026-04-25 19:49 | 52.51539 | -2.26433 | 268 ft | 10 kts | 154° |
| 2026-04-25 19:50 | 52.51487 | -2.26379 | 269 ft | 0 kts | 178° |